sensor_id;sensor_type;location;lat;lon;timestamp;P1;durP1;ratioP1;P2;durP2;ratioP2
15595;SDS011;7898;48.658;9.068;2022-07-06T00:00:12;3.70;;;2.90;;
15595;SDS011;7898;48.658;9.068;2022-07-06T00:02:39;3.97;;;3.00;;
15595;SDS011;7898;48.658;9.068;2022-07-06T00:05:07;3.22;;;2.88;;
15595;SDS011;7898;48.658;9.068;2022-07-06T00:07:34;12.65;;;3.28;;
15595;SDS011;7898;48.658;9.068;2022-07-06T00:10:02;4.97;;;3.20;;
15595;SDS011;7898;48.658;9.068;2022-07-06T00:12:30;3.63;;;2.88;;
15595;SDS011;7898;48.658;9.068;2022-07-06T00:14:57;4.03;;;3.05;;
15595;SDS011;7898;48.658;9.068;2022-07-06T00:17:24;6.45;;;3.15;;
15595;SDS011;7898;48.658;9.068;2022-07-06T00:19:50;6.85;;;2.75;;
15595;SDS011;7898;48.658;9.068;2022-07-06T00:22:17;3.75;;;3.38;;
15595;SDS011;7898;48.658;9.068;2022-07-06T00:24:44;4.05;;;3.28;;
15595;SDS011;7898;48.658;9.068;2022-07-06T00:27:12;5.03;;;3.00;;
15595;SDS011;7898;48.658;9.068;2022-07-06T00:29:39;5.28;;;3.17;;
15595;SDS011;7898;48.658;9.068;2022-07-06T00:32:09;3.60;;;3.30;;
15595;SDS011;7898;48.658;9.068;2022-07-06T00:34:36;4.53;;;2.88;;
15595;SDS011;7898;48.658;9.068;2022-07-06T00:37:04;3.55;;;3.25;;
15595;SDS011;7898;48.658;9.068;2022-07-06T00:39:31;8.40;;;3.25;;
15595;SDS011;7898;48.658;9.068;2022-07-06T00:41:58;8.60;;;3.10;;
15595;SDS011;7898;48.658;9.068;2022-07-06T00:44:27;3.63;;;2.80;;
15595;SDS011;7898;48.658;9.068;2022-07-06T00:46:54;3.00;;;2.70;;
15595;SDS011;7898;48.658;9.068;2022-07-06T00:49:21;3.83;;;3.15;;
15595;SDS011;7898;48.658;9.068;2022-07-06T00:52:05;4.15;;;2.60;;
15595;SDS011;7898;48.658;9.068;2022-07-06T00:54:33;3.50;;;3.15;;
15595;SDS011;7898;48.658;9.068;2022-07-06T00:57:00;11.25;;;2.70;;
15595;SDS011;7898;48.658;9.068;2022-07-06T00:59:28;4.65;;;3.08;;
15595;SDS011;7898;48.658;9.068;2022-07-06T01:01:56;7.60;;;2.83;;
15595;SDS011;7898;48.658;9.068;2022-07-06T01:04:23;3.13;;;2.83;;
15595;SDS011;7898;48.658;9.068;2022-07-06T01:06:50;3.13;;;2.70;;
15595;SDS011;7898;48.658;9.068;2022-07-06T01:09:18;4.05;;;3.08;;
15595;SDS011;7898;48.658;9.068;2022-07-06T01:11:45;5.22;;;2.90;;
15595;SDS011;7898;48.658;9.068;2022-07-06T01:14:12;2.70;;;2.50;;
15595;SDS011;7898;48.658;9.068;2022-07-06T01:16:41;6.03;;;3.17;;
15595;SDS011;7898;48.658;9.068;2022-07-06T01:19:09;3.40;;;2.80;;
15595;SDS011;7898;48.658;9.068;2022-07-06T01:21:38;4.05;;;2.95;;
15595;SDS011;7898;48.658;9.068;2022-07-06T01:24:06;3.15;;;2.85;;
15595;SDS011;7898;48.658;9.068;2022-07-06T01:26:33;5.50;;;3.20;;
15595;SDS011;7898;48.658;9.068;2022-07-06T01:29:00;3.40;;;3.00;;
15595;SDS011;7898;48.658;9.068;2022-07-06T01:31:27;5.95;;;3.00;;
15595;SDS011;7898;48.658;9.068;2022-07-06T01:33:54;4.65;;;2.70;;
15595;SDS011;7898;48.658;9.068;2022-07-06T01:36:23;3.70;;;3.20;;
15595;SDS011;7898;48.658;9.068;2022-07-06T01:38:52;6.22;;;2.50;;
15595;SDS011;7898;48.658;9.068;2022-07-06T01:41:20;5.47;;;2.53;;
15595;SDS011;7898;48.658;9.068;2022-07-06T01:43:47;3.50;;;2.90;;
15595;SDS011;7898;48.658;9.068;2022-07-06T01:46:14;4.70;;;3.08;;
15595;SDS011;7898;48.658;9.068;2022-07-06T01:48:41;5.00;;;3.20;;
15595;SDS011;7898;48.658;9.068;2022-07-06T01:51:08;3.53;;;2.88;;
15595;SDS011;7898;48.658;9.068;2022-07-06T01:53:36;3.00;;;2.55;;
15595;SDS011;7898;48.658;9.068;2022-07-06T01:56:05;3.58;;;3.13;;
15595;SDS011;7898;48.658;9.068;2022-07-06T01:58:33;4.53;;;3.08;;
15595;SDS011;7898;48.658;9.068;2022-07-06T02:01:00;3.25;;;2.95;;
15595;SDS011;7898;48.658;9.068;2022-07-06T02:03:27;4.20;;;2.97;;
15595;SDS011;7898;48.658;9.068;2022-07-06T02:05:54;3.40;;;2.80;;
15595;SDS011;7898;48.658;9.068;2022-07-06T02:08:21;4.30;;;2.88;;
15595;SDS011;7898;48.658;9.068;2022-07-06T02:10:48;6.38;;;2.83;;
15595;SDS011;7898;48.658;9.068;2022-07-06T02:13:16;3.85;;;3.22;;
15595;SDS011;7898;48.658;9.068;2022-07-06T02:15:43;5.43;;;2.83;;
15595;SDS011;7898;48.658;9.068;2022-07-06T02:18:10;4.38;;;3.03;;
15595;SDS011;7898;48.658;9.068;2022-07-06T02:20:37;6.95;;;3.00;;
15595;SDS011;7898;48.658;9.068;2022-07-06T02:23:03;3.83;;;2.70;;
15595;SDS011;7898;48.658;9.068;2022-07-06T02:25:30;3.50;;;3.13;;
15595;SDS011;7898;48.658;9.068;2022-07-06T02:27:57;5.15;;;2.70;;
15595;SDS011;7898;48.658;9.068;2022-07-06T02:30:26;4.60;;;3.13;;
15595;SDS011;7898;48.658;9.068;2022-07-06T02:32:53;2.95;;;2.65;;
15595;SDS011;7898;48.658;9.068;2022-07-06T02:35:19;4.07;;;2.88;;
15595;SDS011;7898;48.658;9.068;2022-07-06T02:37:46;4.00;;;2.63;;
15595;SDS011;7898;48.658;9.068;2022-07-06T02:40:13;4.68;;;2.70;;
15595;SDS011;7898;48.658;9.068;2022-07-06T02:42:40;4.60;;;2.80;;
15595;SDS011;7898;48.658;9.068;2022-07-06T02:45:08;3.08;;;2.50;;
15595;SDS011;7898;48.658;9.068;2022-07-06T02:47:37;5.75;;;3.22;;
15595;SDS011;7898;48.658;9.068;2022-07-06T02:50:04;2.97;;;2.65;;
15595;SDS011;7898;48.658;9.068;2022-07-06T02:52:32;5.55;;;2.83;;
15595;SDS011;7898;48.658;9.068;2022-07-06T02:54:59;3.17;;;2.83;;
15595;SDS011;7898;48.658;9.068;2022-07-06T02:57:28;4.22;;;3.10;;
15595;SDS011;7898;48.658;9.068;2022-07-06T02:59:55;3.00;;;2.70;;
15595;SDS011;7898;48.658;9.068;2022-07-06T03:02:22;7.13;;;2.90;;
15595;SDS011;7898;48.658;9.068;2022-07-06T03:04:51;7.25;;;3.35;;
15595;SDS011;7898;48.658;9.068;2022-07-06T03:07:17;3.85;;;3.13;;
15595;SDS011;7898;48.658;9.068;2022-07-06T03:09:44;5.80;;;2.90;;
15595;SDS011;7898;48.658;9.068;2022-07-06T03:12:11;4.95;;;3.60;;
15595;SDS011;7898;48.658;9.068;2022-07-06T03:14:38;6.72;;;3.30;;
15595;SDS011;7898;48.658;9.068;2022-07-06T03:17:05;3.85;;;3.00;;
15595;SDS011;7898;48.658;9.068;2022-07-06T03:19:32;5.93;;;3.00;;
15595;SDS011;7898;48.658;9.068;2022-07-06T03:22:00;3.30;;;2.90;;
15595;SDS011;7898;48.658;9.068;2022-07-06T03:24:27;4.55;;;3.03;;
15595;SDS011;7898;48.658;9.068;2022-07-06T03:26:54;9.80;;;3.70;;
15595;SDS011;7898;48.658;9.068;2022-07-06T03:29:21;5.35;;;3.70;;
15595;SDS011;7898;48.658;9.068;2022-07-06T03:31:48;7.95;;;3.47;;
15595;SDS011;7898;48.658;9.068;2022-07-06T03:34:15;6.50;;;3.83;;
15595;SDS011;7898;48.658;9.068;2022-07-06T03:36:42;4.10;;;3.53;;
15595;SDS011;7898;48.658;9.068;2022-07-06T03:39:10;9.13;;;3.70;;
15595;SDS011;7898;48.658;9.068;2022-07-06T03:41:37;4.70;;;3.75;;
15595;SDS011;7898;48.658;9.068;2022-07-06T03:44:04;3.83;;;3.33;;
15595;SDS011;7898;48.658;9.068;2022-07-06T03:46:31;7.43;;;3.88;;
15595;SDS011;7898;48.658;9.068;2022-07-06T03:48:58;6.25;;;4.45;;
15595;SDS011;7898;48.658;9.068;2022-07-06T03:51:25;6.82;;;3.92;;
15595;SDS011;7898;48.658;9.068;2022-07-06T03:53:51;6.63;;;3.97;;
15595;SDS011;7898;48.658;9.068;2022-07-06T03:56:20;7.45;;;3.88;;
15595;SDS011;7898;48.658;9.068;2022-07-06T03:58:58;5.28;;;3.65;;
15595;SDS011;7898;48.658;9.068;2022-07-06T04:01:26;5.75;;;3.65;;
15595;SDS011;7898;48.658;9.068;2022-07-06T04:03:53;5.28;;;4.22;;
15595;SDS011;7898;48.658;9.068;2022-07-06T04:06:20;5.78;;;3.88;;
15595;SDS011;7898;48.658;9.068;2022-07-06T04:08:47;5.05;;;4.55;;
15595;SDS011;7898;48.658;9.068;2022-07-06T04:11:14;7.00;;;4.55;;
15595;SDS011;7898;48.658;9.068;2022-07-06T04:13:43;7.10;;;4.53;;
15595;SDS011;7898;48.658;9.068;2022-07-06T04:16:10;8.05;;;5.15;;
15595;SDS011;7898;48.658;9.068;2022-07-06T04:18:36;6.03;;;5.15;;
15595;SDS011;7898;48.658;9.068;2022-07-06T04:21:03;7.10;;;4.50;;
15595;SDS011;7898;48.658;9.068;2022-07-06T04:23:30;6.30;;;4.75;;
15595;SDS011;7898;48.658;9.068;2022-07-06T04:25:57;5.75;;;4.75;;
15595;SDS011;7898;48.658;9.068;2022-07-06T04:28:24;6.70;;;4.50;;
15595;SDS011;7898;48.658;9.068;2022-07-06T04:30:52;5.45;;;4.22;;
15595;SDS011;7898;48.658;9.068;2022-07-06T04:33:19;6.28;;;4.53;;
15595;SDS011;7898;48.658;9.068;2022-07-06T04:35:47;8.05;;;4.47;;
15595;SDS011;7898;48.658;9.068;2022-07-06T04:38:14;5.75;;;5.22;;
15595;SDS011;7898;48.658;9.068;2022-07-06T04:40:41;6.50;;;5.13;;
15595;SDS011;7898;48.658;9.068;2022-07-06T04:43:11;7.00;;;5.35;;
15595;SDS011;7898;48.658;9.068;2022-07-06T04:45:38;5.97;;;4.88;;
15595;SDS011;7898;48.658;9.068;2022-07-06T04:48:06;6.03;;;4.80;;
15595;SDS011;7898;48.658;9.068;2022-07-06T04:50:34;6.53;;;4.93;;
15595;SDS011;7898;48.658;9.068;2022-07-06T04:53:01;7.55;;;5.15;;
15595;SDS011;7898;48.658;9.068;2022-07-06T04:55:28;6.13;;;4.95;;
15595;SDS011;7898;48.658;9.068;2022-07-06T04:57:55;5.40;;;4.72;;
15595;SDS011;7898;48.658;9.068;2022-07-06T05:00:22;6.30;;;4.70;;
15595;SDS011;7898;48.658;9.068;2022-07-06T05:02:49;8.40;;;4.43;;
15595;SDS011;7898;48.658;9.068;2022-07-06T05:05:17;7.60;;;5.30;;
15595;SDS011;7898;48.658;9.068;2022-07-06T05:07:44;6.18;;;4.40;;
15595;SDS011;7898;48.658;9.068;2022-07-06T05:10:11;6.60;;;5.50;;
15595;SDS011;7898;48.658;9.068;2022-07-06T05:12:38;5.18;;;4.68;;
15595;SDS011;7898;48.658;9.068;2022-07-06T05:15:06;6.13;;;4.35;;
15595;SDS011;7898;48.658;9.068;2022-07-06T05:17:34;6.38;;;4.65;;
15595;SDS011;7898;48.658;9.068;2022-07-06T05:20:01;8.98;;;5.25;;
15595;SDS011;7898;48.658;9.068;2022-07-06T05:22:29;7.70;;;5.30;;
15595;SDS011;7898;48.658;9.068;2022-07-06T05:24:56;5.00;;;4.60;;
15595;SDS011;7898;48.658;9.068;2022-07-06T05:27:23;5.47;;;4.70;;
15595;SDS011;7898;48.658;9.068;2022-07-06T05:29:50;7.78;;;4.65;;
15595;SDS011;7898;48.658;9.068;2022-07-06T05:32:17;6.50;;;5.00;;
15595;SDS011;7898;48.658;9.068;2022-07-06T05:34:44;5.10;;;4.60;;
15595;SDS011;7898;48.658;9.068;2022-07-06T05:37:11;5.05;;;4.53;;
15595;SDS011;7898;48.658;9.068;2022-07-06T05:39:39;5.72;;;5.22;;
15595;SDS011;7898;48.658;9.068;2022-07-06T05:42:09;7.13;;;4.90;;
15595;SDS011;7898;48.658;9.068;2022-07-06T05:44:36;11.30;;;5.00;;
15595;SDS011;7898;48.658;9.068;2022-07-06T05:47:03;6.20;;;4.45;;
15595;SDS011;7898;48.658;9.068;2022-07-06T05:49:48;5.05;;;4.50;;
15595;SDS011;7898;48.658;9.068;2022-07-06T05:52:35;5.72;;;4.70;;
15595;SDS011;7898;48.658;9.068;2022-07-06T05:55:04;6.20;;;4.97;;
15595;SDS011;7898;48.658;9.068;2022-07-06T05:57:31;4.85;;;3.97;;
15595;SDS011;7898;48.658;9.068;2022-07-06T05:59:58;4.57;;;4.15;;
15595;SDS011;7898;48.658;9.068;2022-07-06T06:02:25;5.15;;;4.30;;
15595;SDS011;7898;48.658;9.068;2022-07-06T06:04:52;15.35;;;4.85;;
15595;SDS011;7898;48.658;9.068;2022-07-06T06:07:19;6.88;;;4.40;;
15595;SDS011;7898;48.658;9.068;2022-07-06T06:09:46;6.75;;;4.50;;
15595;SDS011;7898;48.658;9.068;2022-07-06T06:12:14;7.88;;;4.60;;
15595;SDS011;7898;48.658;9.068;2022-07-06T06:14:41;6.55;;;4.57;;
15595;SDS011;7898;48.658;9.068;2022-07-06T06:17:08;8.40;;;4.50;;
15595;SDS011;7898;48.658;9.068;2022-07-06T06:19:35;5.25;;;3.90;;
15595;SDS011;7898;48.658;9.068;2022-07-06T06:22:02;5.53;;;4.20;;
15595;SDS011;7898;48.658;9.068;2022-07-06T06:24:30;7.28;;;4.05;;
15595;SDS011;7898;48.658;9.068;2022-07-06T06:26:57;6.40;;;4.05;;
15595;SDS011;7898;48.658;9.068;2022-07-06T06:29:25;7.22;;;3.80;;
15595;SDS011;7898;48.658;9.068;2022-07-06T06:31:52;4.75;;;4.07;;
15595;SDS011;7898;48.658;9.068;2022-07-06T06:34:19;4.28;;;3.65;;
15595;SDS011;7898;48.658;9.068;2022-07-06T06:36:46;5.80;;;4.15;;
15595;SDS011;7898;48.658;9.068;2022-07-06T06:39:13;4.72;;;3.55;;
15595;SDS011;7898;48.658;9.068;2022-07-06T06:41:46;6.30;;;4.18;;
15595;SDS011;7898;48.658;9.068;2022-07-06T06:44:13;7.55;;;3.90;;
15595;SDS011;7898;48.658;9.068;2022-07-06T06:46:41;3.88;;;3.55;;
15595;SDS011;7898;48.658;9.068;2022-07-06T06:49:08;6.18;;;3.15;;
15595;SDS011;7898;48.658;9.068;2022-07-06T06:51:35;8.52;;;3.55;;
15595;SDS011;7898;48.658;9.068;2022-07-06T06:54:03;4.03;;;3.10;;
15595;SDS011;7898;48.658;9.068;2022-07-06T06:56:30;3.75;;;3.45;;
15595;SDS011;7898;48.658;9.068;2022-07-06T06:58:57;5.32;;;3.78;;
15595;SDS011;7898;48.658;9.068;2022-07-06T07:01:26;6.10;;;3.30;;
15595;SDS011;7898;48.658;9.068;2022-07-06T07:03:55;3.53;;;3.03;;
15595;SDS011;7898;48.658;9.068;2022-07-06T07:06:22;4.18;;;3.22;;
15595;SDS011;7898;48.658;9.068;2022-07-06T07:08:49;3.80;;;3.40;;
15595;SDS011;7898;48.658;9.068;2022-07-06T07:11:15;5.72;;;3.28;;
15595;SDS011;7898;48.658;9.068;2022-07-06T07:13:42;6.72;;;3.30;;
15595;SDS011;7898;48.658;9.068;2022-07-06T07:16:09;2.85;;;2.60;;
15595;SDS011;7898;48.658;9.068;2022-07-06T07:18:36;5.78;;;3.15;;
15595;SDS011;7898;48.658;9.068;2022-07-06T07:21:04;3.30;;;3.00;;
15595;SDS011;7898;48.658;9.068;2022-07-06T07:23:31;7.68;;;3.38;;
15595;SDS011;7898;48.658;9.068;2022-07-06T07:25:58;3.28;;;2.72;;
15595;SDS011;7898;48.658;9.068;2022-07-06T07:28:25;4.47;;;2.90;;
15595;SDS011;7898;48.658;9.068;2022-07-06T07:30:52;6.72;;;3.13;;
15595;SDS011;7898;48.658;9.068;2022-07-06T07:33:19;4.25;;;3.17;;
15595;SDS011;7898;48.658;9.068;2022-07-06T07:35:46;4.30;;;2.75;;
15595;SDS011;7898;48.658;9.068;2022-07-06T07:38:14;5.82;;;2.92;;
15595;SDS011;7898;48.658;9.068;2022-07-06T07:40:41;4.35;;;3.10;;
15595;SDS011;7898;48.658;9.068;2022-07-06T07:43:08;3.45;;;2.63;;
15595;SDS011;7898;48.658;9.068;2022-07-06T07:45:35;3.03;;;2.50;;
15595;SDS011;7898;48.658;9.068;2022-07-06T07:48:02;6.25;;;3.10;;
15595;SDS011;7898;48.658;9.068;2022-07-06T07:50:29;3.65;;;2.72;;
15595;SDS011;7898;48.658;9.068;2022-07-06T07:52:56;5.22;;;2.70;;
15595;SDS011;7898;48.658;9.068;2022-07-06T07:55:24;3.42;;;2.75;;
15595;SDS011;7898;48.658;9.068;2022-07-06T07:57:51;5.57;;;3.40;;
15595;SDS011;7898;48.658;9.068;2022-07-06T08:00:18;3.75;;;3.45;;
15595;SDS011;7898;48.658;9.068;2022-07-06T08:02:46;8.23;;;3.13;;
15595;SDS011;7898;48.658;9.068;2022-07-06T08:05:13;3.55;;;3.25;;
15595;SDS011;7898;48.658;9.068;2022-07-06T08:07:40;6.35;;;2.75;;
15595;SDS011;7898;48.658;9.068;2022-07-06T08:10:08;4.05;;;3.10;;
15595;SDS011;7898;48.658;9.068;2022-07-06T08:12:37;3.33;;;3.05;;
15595;SDS011;7898;48.658;9.068;2022-07-06T08:15:04;4.55;;;2.90;;
15595;SDS011;7898;48.658;9.068;2022-07-06T08:17:31;3.92;;;3.17;;
15595;SDS011;7898;48.658;9.068;2022-07-06T08:19:58;6.22;;;3.08;;
15595;SDS011;7898;48.658;9.068;2022-07-06T08:22:26;6.30;;;3.25;;
15595;SDS011;7898;48.658;9.068;2022-07-06T08:24:54;3.47;;;2.70;;
15595;SDS011;7898;48.658;9.068;2022-07-06T08:27:21;5.88;;;3.38;;
15595;SDS011;7898;48.658;9.068;2022-07-06T08:29:49;4.82;;;3.22;;
15595;SDS011;7898;48.658;9.068;2022-07-06T08:32:16;3.92;;;2.63;;
15595;SDS011;7898;48.658;9.068;2022-07-06T08:34:44;4.05;;;2.90;;
15595;SDS011;7898;48.658;9.068;2022-07-06T08:37:14;6.35;;;3.05;;
15595;SDS011;7898;48.658;9.068;2022-07-06T08:39:41;5.72;;;2.83;;
15595;SDS011;7898;48.658;9.068;2022-07-06T08:42:08;3.53;;;3.13;;
15595;SDS011;7898;48.658;9.068;2022-07-06T08:44:36;3.58;;;3.08;;
15595;SDS011;7898;48.658;9.068;2022-07-06T08:47:05;4.10;;;2.95;;
15595;SDS011;7898;48.658;9.068;2022-07-06T08:49:33;3.15;;;2.83;;
15595;SDS011;7898;48.658;9.068;2022-07-06T08:52:02;3.33;;;2.85;;
15595;SDS011;7898;48.658;9.068;2022-07-06T08:54:30;3.08;;;2.80;;
15595;SDS011;7898;48.658;9.068;2022-07-06T08:56:57;7.55;;;3.25;;
15595;SDS011;7898;48.658;9.068;2022-07-06T08:59:25;5.07;;;3.05;;
15595;SDS011;7898;48.658;9.068;2022-07-06T09:01:52;3.15;;;2.85;;
15595;SDS011;7898;48.658;9.068;2022-07-06T09:04:21;3.38;;;2.90;;
15595;SDS011;7898;48.658;9.068;2022-07-06T09:06:49;7.05;;;3.40;;
15595;SDS011;7898;48.658;9.068;2022-07-06T09:09:18;5.63;;;3.28;;
15595;SDS011;7898;48.658;9.068;2022-07-06T09:11:47;5.82;;;2.90;;
15595;SDS011;7898;48.658;9.068;2022-07-06T09:14:14;3.72;;;3.13;;
15595;SDS011;7898;48.658;9.068;2022-07-06T09:16:41;7.30;;;3.20;;
15595;SDS011;7898;48.658;9.068;2022-07-06T09:19:10;3.33;;;3.03;;
15595;SDS011;7898;48.658;9.068;2022-07-06T09:21:40;5.28;;;2.83;;
15595;SDS011;7898;48.658;9.068;2022-07-06T09:24:08;4.13;;;2.65;;
15595;SDS011;7898;48.658;9.068;2022-07-06T09:26:39;5.18;;;2.90;;
15595;SDS011;7898;48.658;9.068;2022-07-06T09:29:07;3.38;;;2.80;;
15595;SDS011;7898;48.658;9.068;2022-07-06T09:31:34;3.42;;;3.00;;
15595;SDS011;7898;48.658;9.068;2022-07-06T09:34:02;3.92;;;3.10;;
15595;SDS011;7898;48.658;9.068;2022-07-06T09:36:42;9.25;;;3.60;;
15595;SDS011;7898;48.658;9.068;2022-07-06T09:39:17;6.15;;;3.00;;
15595;SDS011;7898;48.658;9.068;2022-07-06T09:41:48;3.13;;;2.88;;
15595;SDS011;7898;48.658;9.068;2022-07-06T09:44:20;3.28;;;2.85;;
15595;SDS011;7898;48.658;9.068;2022-07-06T09:46:49;4.13;;;2.92;;
15595;SDS011;7898;48.658;9.068;2022-07-06T09:49:17;4.70;;;3.53;;
15595;SDS011;7898;48.658;9.068;2022-07-06T09:51:46;4.35;;;3.58;;
15595;SDS011;7898;48.658;9.068;2022-07-06T09:54:14;6.65;;;3.28;;
15595;SDS011;7898;48.658;9.068;2022-07-06T09:56:42;4.45;;;3.40;;
15595;SDS011;7898;48.658;9.068;2022-07-06T09:59:14;3.00;;;2.80;;
15595;SDS011;7898;48.658;9.068;2022-07-06T10:01:42;4.13;;;3.17;;
15595;SDS011;7898;48.658;9.068;2022-07-06T10:04:10;5.70;;;2.80;;
15595;SDS011;7898;48.658;9.068;2022-07-06T10:06:39;5.50;;;2.90;;
15595;SDS011;7898;48.658;9.068;2022-07-06T10:09:09;4.05;;;2.92;;
15595;SDS011;7898;48.658;9.068;2022-07-06T10:11:37;5.78;;;2.97;;
15595;SDS011;7898;48.658;9.068;2022-07-06T10:14:06;6.60;;;2.80;;
15595;SDS011;7898;48.658;9.068;2022-07-06T10:16:34;3.70;;;2.90;;
15595;SDS011;7898;48.658;9.068;2022-07-06T10:19:04;4.82;;;3.40;;
15595;SDS011;7898;48.658;9.068;2022-07-06T10:21:35;4.03;;;3.33;;
15595;SDS011;7898;48.658;9.068;2022-07-06T10:24:03;4.28;;;3.53;;
15595;SDS011;7898;48.658;9.068;2022-07-06T10:26:33;3.85;;;3.30;;
15595;SDS011;7898;48.658;9.068;2022-07-06T10:29:02;3.78;;;3.08;;
15595;SDS011;7898;48.658;9.068;2022-07-06T10:31:30;4.55;;;3.35;;
15595;SDS011;7898;48.658;9.068;2022-07-06T10:33:58;3.83;;;3.28;;
15595;SDS011;7898;48.658;9.068;2022-07-06T10:36:26;3.08;;;2.78;;
15595;SDS011;7898;48.658;9.068;2022-07-06T10:38:54;5.45;;;4.18;;
15595;SDS011;7898;48.658;9.068;2022-07-06T10:41:30;3.80;;;3.50;;
15595;SDS011;7898;48.658;9.068;2022-07-06T10:43:58;3.97;;;3.50;;
15595;SDS011;7898;48.658;9.068;2022-07-06T10:46:41;3.67;;;3.15;;
15595;SDS011;7898;48.658;9.068;2022-07-06T10:49:16;5.97;;;3.50;;
15595;SDS011;7898;48.658;9.068;2022-07-06T10:51:44;6.35;;;3.45;;
15595;SDS011;7898;48.658;9.068;2022-07-06T10:54:10;7.85;;;3.80;;
15595;SDS011;7898;48.658;9.068;2022-07-06T10:56:39;7.68;;;3.55;;
15595;SDS011;7898;48.658;9.068;2022-07-06T10:59:08;3.47;;;3.13;;
15595;SDS011;7898;48.658;9.068;2022-07-06T11:01:36;6.07;;;3.33;;
15595;SDS011;7898;48.658;9.068;2022-07-06T11:04:07;4.90;;;3.13;;
15595;SDS011;7898;48.658;9.068;2022-07-06T11:06:35;12.02;;;3.47;;
15595;SDS011;7898;48.658;9.068;2022-07-06T11:09:03;3.85;;;3.45;;
15595;SDS011;7898;48.658;9.068;2022-07-06T11:11:41;5.13;;;3.35;;
15595;SDS011;7898;48.658;9.068;2022-07-06T11:14:11;5.57;;;3.58;;
15595;SDS011;7898;48.658;9.068;2022-07-06T11:16:40;4.82;;;3.70;;
15595;SDS011;7898;48.658;9.068;2022-07-06T11:19:27;5.65;;;3.60;;
15595;SDS011;7898;48.658;9.068;2022-07-06T11:21:55;5.70;;;3.33;;
15595;SDS011;7898;48.658;9.068;2022-07-06T11:24:24;7.00;;;3.75;;
15595;SDS011;7898;48.658;9.068;2022-07-06T11:26:54;5.30;;;3.60;;
15595;SDS011;7898;48.658;9.068;2022-07-06T11:29:23;6.38;;;3.70;;
15595;SDS011;7898;48.658;9.068;2022-07-06T11:31:52;5.93;;;3.90;;
15595;SDS011;7898;48.658;9.068;2022-07-06T11:34:20;7.80;;;3.80;;
15595;SDS011;7898;48.658;9.068;2022-07-06T11:36:48;5.38;;;3.80;;
15595;SDS011;7898;48.658;9.068;2022-07-06T11:39:15;3.85;;;3.40;;
15595;SDS011;7898;48.658;9.068;2022-07-06T11:41:43;5.07;;;3.85;;
15595;SDS011;7898;48.658;9.068;2022-07-06T11:44:11;5.20;;;3.97;;
15595;SDS011;7898;48.658;9.068;2022-07-06T11:46:38;7.93;;;3.78;;
15595;SDS011;7898;48.658;9.068;2022-07-06T11:49:06;5.82;;;3.67;;
15595;SDS011;7898;48.658;9.068;2022-07-06T11:51:35;4.55;;;3.80;;
15595;SDS011;7898;48.658;9.068;2022-07-06T11:54:07;8.45;;;4.28;;
15595;SDS011;7898;48.658;9.068;2022-07-06T11:56:35;4.35;;;3.95;;
15595;SDS011;7898;48.658;9.068;2022-07-06T11:59:02;6.78;;;3.90;;
15595;SDS011;7898;48.658;9.068;2022-07-06T12:01:31;5.50;;;4.57;;
15595;SDS011;7898;48.658;9.068;2022-07-06T12:03:59;12.07;;;5.55;;
15595;SDS011;7898;48.658;9.068;2022-07-06T12:06:29;6.57;;;4.03;;
15595;SDS011;7898;48.658;9.068;2022-07-06T12:08:58;7.53;;;4.10;;
15595;SDS011;7898;48.658;9.068;2022-07-06T12:11:29;6.35;;;3.85;;
15595;SDS011;7898;48.658;9.068;2022-07-06T12:13:58;5.03;;;4.18;;
15595;SDS011;7898;48.658;9.068;2022-07-06T12:16:29;4.97;;;4.18;;
15595;SDS011;7898;48.658;9.068;2022-07-06T12:19:00;5.82;;;4.15;;
15595;SDS011;7898;48.658;9.068;2022-07-06T12:21:27;9.07;;;4.80;;
15595;SDS011;7898;48.658;9.068;2022-07-06T12:23:54;6.20;;;4.30;;
15595;SDS011;7898;48.658;9.068;2022-07-06T12:26:22;5.13;;;3.90;;
15595;SDS011;7898;48.658;9.068;2022-07-06T12:29:00;4.82;;;3.60;;
15595;SDS011;7898;48.658;9.068;2022-07-06T12:31:30;5.47;;;3.70;;
15595;SDS011;7898;48.658;9.068;2022-07-06T12:34:00;4.45;;;4.03;;
15595;SDS011;7898;48.658;9.068;2022-07-06T12:36:27;5.30;;;3.55;;
15595;SDS011;7898;48.658;9.068;2022-07-06T12:38:54;6.18;;;4.13;;
15595;SDS011;7898;48.658;9.068;2022-07-06T12:41:28;7.70;;;4.32;;
15595;SDS011;7898;48.658;9.068;2022-07-06T12:44:04;7.00;;;4.43;;
15595;SDS011;7898;48.658;9.068;2022-07-06T12:46:33;7.68;;;4.28;;
15595;SDS011;7898;48.658;9.068;2022-07-06T12:49:03;4.75;;;3.95;;
15595;SDS011;7898;48.658;9.068;2022-07-06T12:51:50;7.32;;;4.03;;
15595;SDS011;7898;48.658;9.068;2022-07-06T12:54:21;13.02;;;4.47;;
15595;SDS011;7898;48.658;9.068;2022-07-06T12:57:03;6.03;;;4.20;;
15595;SDS011;7898;48.658;9.068;2022-07-06T12:59:39;6.63;;;4.22;;
15595;SDS011;7898;48.658;9.068;2022-07-06T13:02:10;5.15;;;4.20;;
15595;SDS011;7898;48.658;9.068;2022-07-06T13:04:49;7.47;;;3.83;;
15595;SDS011;7898;48.658;9.068;2022-07-06T13:07:21;4.40;;;4.00;;
15595;SDS011;7898;48.658;9.068;2022-07-06T13:09:49;4.25;;;3.53;;
15595;SDS011;7898;48.658;9.068;2022-07-06T13:12:16;4.97;;;3.40;;
15595;SDS011;7898;48.658;9.068;2022-07-06T13:14:43;7.60;;;3.65;;
15595;SDS011;7898;48.658;9.068;2022-07-06T13:17:10;5.65;;;2.90;;
15595;SDS011;7898;48.658;9.068;2022-07-06T13:19:37;5.15;;;3.75;;
15595;SDS011;7898;48.658;9.068;2022-07-06T13:22:05;6.88;;;3.53;;
15595;SDS011;7898;48.658;9.068;2022-07-06T13:24:33;4.75;;;3.55;;
15595;SDS011;7898;48.658;9.068;2022-07-06T13:27:00;6.30;;;3.35;;
15595;SDS011;7898;48.658;9.068;2022-07-06T13:29:27;6.00;;;3.70;;
15595;SDS011;7898;48.658;9.068;2022-07-06T13:31:54;4.50;;;3.60;;
15595;SDS011;7898;48.658;9.068;2022-07-06T13:34:21;5.45;;;4.00;;
15595;SDS011;7898;48.658;9.068;2022-07-06T13:36:48;4.00;;;3.67;;
15595;SDS011;7898;48.658;9.068;2022-07-06T13:39:17;4.45;;;3.50;;
15595;SDS011;7898;48.658;9.068;2022-07-06T13:41:44;6.28;;;4.20;;
15595;SDS011;7898;48.658;9.068;2022-07-06T13:44:11;5.50;;;4.00;;
15595;SDS011;7898;48.658;9.068;2022-07-06T13:46:39;7.63;;;3.28;;
15595;SDS011;7898;48.658;9.068;2022-07-06T13:49:06;7.47;;;3.58;;
15595;SDS011;7898;48.658;9.068;2022-07-06T13:51:32;5.47;;;3.33;;
15595;SDS011;7898;48.658;9.068;2022-07-06T13:54:00;6.35;;;3.40;;
15595;SDS011;7898;48.658;9.068;2022-07-06T13:56:29;6.82;;;3.50;;
15595;SDS011;7898;48.658;9.068;2022-07-06T13:58:56;5.47;;;3.70;;
15595;SDS011;7898;48.658;9.068;2022-07-06T14:01:23;6.88;;;3.30;;
15595;SDS011;7898;48.658;9.068;2022-07-06T14:03:58;5.93;;;3.65;;
15595;SDS011;7898;48.658;9.068;2022-07-06T14:06:25;3.88;;;3.10;;
15595;SDS011;7898;48.658;9.068;2022-07-06T14:08:52;3.90;;;3.10;;
15595;SDS011;7898;48.658;9.068;2022-07-06T14:11:18;5.10;;;3.50;;
15595;SDS011;7898;48.658;9.068;2022-07-06T14:13:47;5.32;;;2.85;;
15595;SDS011;7898;48.658;9.068;2022-07-06T14:16:14;4.05;;;3.45;;
15595;SDS011;7898;48.658;9.068;2022-07-06T14:18:41;4.85;;;3.15;;
15595;SDS011;7898;48.658;9.068;2022-07-06T14:21:09;3.92;;;3.53;;
15595;SDS011;7898;48.658;9.068;2022-07-06T14:23:36;3.35;;;2.88;;
15595;SDS011;7898;48.658;9.068;2022-07-06T14:26:06;3.33;;;2.70;;
15595;SDS011;7898;48.658;9.068;2022-07-06T14:28:33;5.38;;;2.92;;
15595;SDS011;7898;48.658;9.068;2022-07-06T14:31:02;4.13;;;3.05;;
15595;SDS011;7898;48.658;9.068;2022-07-06T14:33:29;8.35;;;3.13;;
15595;SDS011;7898;48.658;9.068;2022-07-06T14:35:56;4.07;;;3.10;;
15595;SDS011;7898;48.658;9.068;2022-07-06T14:38:24;3.70;;;2.90;;
15595;SDS011;7898;48.658;9.068;2022-07-06T14:40:52;3.78;;;3.08;;
15595;SDS011;7898;48.658;9.068;2022-07-06T14:43:19;4.55;;;2.80;;
15595;SDS011;7898;48.658;9.068;2022-07-06T14:45:46;5.78;;;2.65;;
15595;SDS011;7898;48.658;9.068;2022-07-06T14:48:15;5.90;;;2.72;;
15595;SDS011;7898;48.658;9.068;2022-07-06T14:50:42;5.88;;;2.72;;
15595;SDS011;7898;48.658;9.068;2022-07-06T14:53:09;4.30;;;2.67;;
15595;SDS011;7898;48.658;9.068;2022-07-06T14:55:36;5.00;;;2.40;;
15595;SDS011;7898;48.658;9.068;2022-07-06T14:58:03;2.47;;;2.28;;
15595;SDS011;7898;48.658;9.068;2022-07-06T15:00:30;4.40;;;2.50;;
15595;SDS011;7898;48.658;9.068;2022-07-06T15:02:57;5.13;;;2.65;;
15595;SDS011;7898;48.658;9.068;2022-07-06T15:05:25;6.13;;;3.00;;